createdAt,value
2019-02-23T00:00:59.750Z,99.90
2019-02-23T00:03:28.630Z,99.90
2019-02-23T00:05:58.049Z,99.90
2019-02-23T00:08:27.330Z,99.90
2019-02-23T00:10:56.096Z,99.90
2019-02-23T00:13:24.912Z,99.90
2019-02-23T00:15:53.992Z,99.90
2019-02-23T00:18:22.801Z,99.90
2019-02-23T00:20:51.600Z,99.90
2019-02-23T00:23:20.728Z,99.90
2019-02-23T00:25:49.595Z,99.90
2019-02-23T00:28:18.655Z,99.90
2019-02-23T00:30:47.957Z,99.90
2019-02-23T00:33:16.725Z,99.90
2019-02-23T00:35:45.496Z,99.90
2019-02-23T00:38:14.308Z,99.90
2019-02-23T00:40:43.176Z,99.90
2019-02-23T00:43:11.977Z,99.90
2019-02-23T00:45:41.196Z,99.90
2019-02-23T00:48:09.988Z,99.90
2019-02-23T00:50:38.783Z,99.90
2019-02-23T00:53:07.572Z,99.90
2019-02-23T00:55:36.713Z,99.90
2019-02-23T00:58:06.137Z,99.90
2019-02-23T01:00:34.986Z,99.90
2019-02-23T01:03:03.838Z,99.90
2019-02-23T01:05:32.724Z,99.90
2019-02-23T01:08:01.524Z,99.90
2019-02-23T01:10:30.460Z,99.90
2019-02-23T01:12:59.237Z,99.90
2019-02-23T01:15:28.086Z,99.90
2019-02-23T01:17:57.172Z,99.90
2019-02-23T01:20:26.123Z,99.90
2019-02-23T01:22:55.004Z,99.90
2019-02-23T01:25:23.941Z,99.90
2019-02-23T01:27:52.788Z,99.90
2019-02-23T01:30:21.740Z,99.90
2019-02-23T01:32:50.903Z,99.90
2019-02-23T01:35:19.950Z,99.90
2019-02-23T01:37:49.321Z,99.90
2019-02-23T01:40:18.261Z,99.90
2019-02-23T01:42:47.435Z,99.90
2019-02-23T01:45:16.488Z,99.90
2019-02-23T01:47:45.285Z,99.90
2019-02-23T01:50:14.310Z,99.90
2019-02-23T01:52:43.189Z,99.90
2019-02-23T01:55:12.043Z,99.90
2019-02-23T01:57:41.380Z,99.90
2019-02-23T02:00:12.604Z,99.90
2019-02-23T02:02:41.804Z,99.90
2019-02-23T02:05:10.896Z,99.90
2019-02-23T02:07:40.088Z,99.90
2019-02-23T02:10:10.285Z,99.90
2019-02-23T02:12:39.328Z,99.90
2019-02-23T02:15:15.301Z,99.90
2019-02-23T02:17:44.143Z,99.90
2019-02-23T02:20:13.067Z,99.90
2019-02-23T02:22:42.113Z,99.90
2019-02-23T02:25:11.052Z,99.90
2019-02-23T02:27:40.228Z,99.90
2019-02-23T02:30:11.098Z,99.90
2019-02-23T02:32:40.194Z,99.90
2019-02-23T02:35:09.896Z,99.90
2019-02-23T02:37:38.737Z,99.90
2019-02-23T02:40:08.639Z,99.90
2019-02-23T02:42:37.514Z,99.90
2019-02-23T02:45:07.809Z,99.90
2019-02-23T02:47:36.576Z,99.90
2019-02-23T02:50:06.349Z,99.90
2019-02-23T02:52:35.456Z,99.90
2019-02-23T02:55:04.471Z,99.90
2019-02-23T02:57:33.248Z,99.90
2019-02-23T03:00:02.293Z,99.90
2019-02-23T03:02:31.140Z,99.90
2019-02-23T03:04:59.932Z,99.90
2019-02-23T03:07:28.777Z,99.90
2019-02-23T03:09:57.629Z,99.90
2019-02-23T03:12:26.401Z,99.90
2019-02-23T03:14:55.184Z,99.90
2019-02-23T03:17:23.977Z,99.90
2019-02-23T03:19:52.789Z,99.90
2019-02-23T03:22:21.646Z,99.90
2019-02-23T03:24:50.841Z,99.90
2019-02-23T03:27:19.630Z,99.90
2019-02-23T03:29:48.705Z,99.90
2019-02-23T03:32:17.522Z,99.90
2019-02-23T03:34:46.694Z,99.90
2019-02-23T03:37:15.790Z,99.90
2019-02-23T03:39:44.588Z,99.90
2019-02-23T03:42:13.626Z,99.90
2019-02-23T03:44:42.389Z,99.90
2019-02-23T03:47:11.193Z,99.90
2019-02-23T03:49:40.305Z,99.90
2019-02-23T03:52:09.181Z,99.90
2019-02-23T03:54:38.008Z,99.90
2019-02-23T03:57:06.796Z,99.90
2019-02-23T03:59:35.833Z,99.90
2019-02-23T04:02:05.008Z,99.90
2019-02-23T04:04:34.050Z,99.90
2019-02-23T04:07:02.844Z,99.90
2019-02-23T04:09:31.976Z,99.90
2019-02-23T04:12:00.793Z,99.90
2019-02-23T04:14:29.597Z,99.90
2019-02-23T04:16:58.620Z,99.90
2019-02-23T04:19:27.481Z,99.90
2019-02-23T04:21:56.376Z,99.90
2019-02-23T04:24:25.177Z,99.90
2019-02-23T04:26:54.622Z,99.90
2019-02-23T04:29:23.409Z,99.90
2019-02-23T04:31:52.188Z,99.90
2019-02-23T04:34:20.982Z,99.90
2019-02-23T04:36:50.018Z,99.90
2019-02-23T04:39:18.823Z,99.90
2019-02-23T04:41:47.600Z,99.90
2019-02-23T04:44:16.409Z,99.90
2019-02-23T04:46:45.180Z,99.90
2019-02-23T04:49:13.960Z,99.90
2019-02-23T04:51:43.093Z,99.90
2019-02-23T04:54:11.868Z,99.90
2019-02-23T04:56:40.906Z,99.90
2019-02-23T04:59:09.698Z,99.90
2019-02-23T05:01:38.502Z,99.90
2019-02-23T05:04:07.351Z,99.90
2019-02-23T05:06:36.145Z,99.90
2019-02-23T05:09:06.202Z,99.90
2019-02-23T05:11:35.129Z,99.90
2019-02-23T05:14:04.083Z,99.90
2019-02-23T05:16:32.861Z,99.90
2019-02-23T05:19:01.965Z,99.90
2019-02-23T05:21:30.748Z,99.90
2019-02-23T05:23:59.798Z,99.90
2019-02-23T05:26:29.226Z,99.90
2019-02-23T05:28:58.025Z,99.90
2019-02-23T05:31:26.905Z,99.90
2019-02-23T05:33:55.691Z,99.90
2019-02-23T05:36:24.734Z,99.90
2019-02-23T05:38:53.543Z,99.90
2019-02-23T05:41:22.333Z,99.90
2019-02-23T05:43:51.606Z,99.90
2019-02-23T05:46:20.710Z,99.90
2019-02-23T05:48:49.837Z,99.90
2019-02-23T05:51:18.936Z,99.90
2019-02-23T05:53:47.738Z,99.90
2019-02-23T05:56:16.545Z,99.90
2019-02-23T05:58:45.337Z,99.90
2019-02-23T06:01:14.209Z,99.90
2019-02-23T06:03:43.005Z,99.90
2019-02-23T06:06:11.812Z,99.90
2019-02-23T06:08:40.598Z,99.90
2019-02-23T06:11:09.388Z,99.90
2019-02-23T06:13:38.189Z,99.90
2019-02-23T06:16:07.062Z,99.90
2019-02-23T06:18:35.920Z,99.90
2019-02-23T06:21:05.087Z,99.90
2019-02-23T06:23:33.870Z,99.90
2019-02-23T06:26:02.679Z,99.90
2019-02-23T06:28:31.508Z,99.90
2019-02-23T06:31:00.485Z,99.90
2019-02-23T06:33:29.585Z,99.90
2019-02-23T06:35:58.440Z,99.90
2019-02-23T06:38:27.304Z,99.90
2019-02-23T06:40:56.112Z,99.90
2019-02-23T06:43:24.893Z,99.90
2019-02-23T06:45:53.765Z,99.90
2019-02-23T06:48:22.565Z,99.90
2019-02-23T06:50:51.349Z,99.90
2019-02-23T06:53:20.388Z,99.90
2019-02-23T06:55:49.462Z,99.90
2019-02-23T06:58:18.325Z,99.90
2019-02-23T07:00:47.211Z,99.90
2019-02-23T07:03:16.178Z,99.90
2019-02-23T07:05:44.993Z,99.90
2019-02-23T07:08:13.781Z,99.90
2019-02-23T07:10:42.952Z,99.90
2019-02-23T07:13:11.755Z,99.90
2019-02-23T07:15:40.544Z,99.90
2019-02-23T07:18:09.633Z,99.90
2019-02-23T07:20:44.386Z,99.90
2019-02-23T07:23:09.260Z,99.90
2019-02-23T07:25:38.085Z,99.90
2019-02-23T07:28:07.121Z,99.90
2019-02-23T07:30:36.184Z,99.90
2019-02-23T07:33:05.153Z,99.90
2019-02-23T07:35:33.947Z,99.90
2019-02-23T07:38:03.004Z,99.90
2019-02-23T07:40:31.867Z,99.90
2019-02-23T07:43:00.644Z,99.90
2019-02-23T07:45:29.985Z,99.90
2019-02-23T07:47:58.766Z,99.90
2019-02-23T07:50:27.812Z,99.90
2019-02-23T07:52:56.585Z,99.90
2019-02-23T07:55:25.359Z,99.90
2019-02-23T07:57:54.690Z,99.90
2019-02-23T08:00:23.728Z,99.90
2019-02-23T08:02:52.600Z,99.90
2019-02-23T08:05:21.699Z,99.90
2019-02-23T08:07:50.501Z,99.90
2019-02-23T08:10:19.321Z,99.90
2019-02-23T08:12:48.331Z,99.90
2019-02-23T08:15:17.485Z,99.90
2019-02-23T08:17:46.271Z,99.90
2019-02-23T08:20:15.093Z,99.90
2019-02-23T08:22:43.990Z,99.90
2019-02-23T08:25:12.789Z,99.90
2019-02-23T08:27:50.223Z,99.90
2019-02-23T08:30:52.810Z,96.60
2019-02-23T08:33:22.126Z,95.10
2019-02-23T08:35:51.325Z,93.80
2019-02-23T08:38:20.237Z,95.50
2019-02-23T08:40:49.036Z,94.60
2019-02-23T08:43:17.866Z,95.80
2019-02-23T08:45:46.672Z,91.90
2019-02-23T08:48:15.586Z,96.00
2019-02-23T08:50:44.366Z,93.00
2019-02-23T08:53:13.237Z,94.30
2019-02-23T08:55:42.024Z,92.30
2019-02-23T08:58:10.794Z,87.30
2019-02-23T09:00:39.994Z,90.80
2019-02-23T09:03:09.001Z,84.70
2019-02-23T09:05:38.686Z,78.50
2019-02-23T09:08:07.468Z,76.40
2019-02-23T09:10:36.315Z,75.20
2019-02-23T09:13:05.198Z,75.10
2019-02-23T09:15:34.012Z,76.40
2019-02-23T09:18:05.741Z,71.20
2019-02-23T09:20:34.609Z,71.30
2019-02-23T09:23:05.948Z,68.00
2019-02-23T09:25:34.953Z,64.10
2019-02-23T09:28:04.069Z,63.80
2019-02-23T09:30:33.245Z,63.00
2019-02-23T09:33:02.112Z,64.70
2019-02-23T09:35:30.880Z,65.00
2019-02-23T09:37:59.689Z,64.80
2019-02-23T09:40:28.522Z,64.60
2019-02-23T09:42:57.375Z,63.10
2019-02-23T09:45:26.185Z,62.20
2019-02-23T09:47:55.085Z,61.20
2019-02-23T09:50:24.232Z,60.10
2019-02-23T09:52:53.057Z,59.70
2019-02-23T09:55:21.985Z,58.70
2019-02-23T09:57:50.773Z,58.40
2019-02-23T10:00:19.669Z,58.10
2019-02-23T10:02:48.468Z,57.80
2019-02-23T10:05:17.469Z,58.10
2019-02-23T10:07:46.338Z,57.90
2019-02-23T10:10:15.481Z,56.20
2019-02-23T10:12:44.263Z,55.20
2019-02-23T10:15:13.170Z,55.20
2019-02-23T10:17:41.981Z,54.40
2019-02-23T10:20:11.260Z,53.80
2019-02-23T10:22:40.203Z,53.80
2019-02-23T10:25:09.235Z,51.60
2019-02-23T10:27:38.189Z,51.00
2019-02-23T10:30:08.136Z,51.10
2019-02-23T10:32:37.028Z,49.80
2019-02-23T10:35:06.447Z,50.10
2019-02-23T10:37:35.478Z,49.30
2019-02-23T10:40:06.188Z,50.10
2019-02-23T10:42:35.064Z,50.10
2019-02-23T10:45:04.243Z,49.00
2019-02-23T10:47:33.036Z,48.00
2019-02-23T10:50:01.882Z,47.80
2019-02-23T10:52:30.673Z,46.80
2019-02-23T10:54:59.572Z,45.70
2019-02-23T10:57:28.422Z,44.90
2019-02-23T10:59:57.299Z,44.20
2019-02-23T11:02:26.256Z,44.10
2019-02-23T11:04:55.099Z,44.10
2019-02-23T11:07:24.203Z,43.40
2019-02-23T11:09:53.189Z,42.10
2019-02-23T11:12:22.029Z,41.60
2019-02-23T11:14:51.158Z,40.30
2019-02-23T11:17:20.084Z,40.00
2019-02-23T11:19:49.352Z,39.90
2019-02-23T11:22:18.357Z,39.00
2019-02-23T11:24:47.141Z,38.40
2019-02-23T11:27:16.466Z,37.40
2019-02-23T11:29:45.261Z,37.00
2019-02-23T11:32:14.112Z,37.10
2019-02-23T11:34:43.039Z,36.10
2019-02-23T11:37:12.222Z,35.00
2019-02-23T11:40:00.638Z,34.40
2019-02-23T11:42:29.515Z,33.30
2019-02-23T11:44:58.380Z,32.50
2019-02-23T11:47:27.267Z,32.10
2019-02-23T11:49:56.600Z,31.60
2019-02-23T11:52:25.484Z,30.70
2019-02-23T11:54:54.314Z,31.90
2019-02-23T11:57:23.192Z,30.00
2019-02-23T11:59:51.956Z,31.70
2019-02-23T12:02:20.780Z,31.40
2019-02-23T12:04:49.709Z,30.50
2019-02-23T12:07:18.497Z,29.60
2019-02-23T12:09:47.281Z,28.90
2019-02-23T12:12:16.068Z,28.30
2019-02-23T12:14:44.925Z,28.90
2019-02-23T12:17:13.858Z,27.60
2019-02-23T12:19:45.196Z,27.30
2019-02-23T12:22:14.240Z,26.80
2019-02-23T12:24:43.783Z,26.40
2019-02-23T12:27:46.308Z,26.70
2019-02-23T12:33:34.521Z,25.80
2019-02-23T12:36:03.437Z,25.70
2019-02-23T12:38:32.509Z,26.10
2019-02-23T12:41:01.668Z,25.80
2019-02-23T12:43:30.449Z,25.80
2019-02-23T12:45:59.253Z,26.40
2019-02-23T12:48:28.100Z,26.90
2019-02-23T12:50:56.945Z,25.60
2019-02-23T12:53:25.759Z,26.50
2019-02-23T12:55:54.545Z,25.70
2019-02-23T12:58:23.351Z,24.80
2019-02-23T13:00:52.228Z,23.80
2019-02-23T13:03:21.081Z,24.10
2019-02-23T13:05:49.874Z,24.30
2019-02-23T13:08:18.768Z,25.20
2019-02-23T13:10:49.737Z,25.60
2019-02-23T13:13:48.314Z,24.50
2019-02-23T13:16:49.239Z,25.10
2019-02-23T13:19:46.196Z,25.00
2019-02-23T13:22:37.808Z,25.40
2019-02-23T13:25:33.321Z,25.80
2019-02-23T13:28:41.242Z,25.90
2019-02-23T13:32:06.421Z,24.30
2019-02-23T13:35:05.187Z,24.80
2019-02-23T13:38:14.761Z,25.20
2019-02-23T13:41:29.281Z,25.30
2019-02-23T13:44:33.977Z,25.30
2019-02-23T13:47:49.058Z,25.60
2019-02-23T13:50:37.133Z,25.80
2019-02-23T13:53:52.338Z,26.00
2019-02-23T13:56:58.199Z,26.40
2019-02-23T14:00:10.614Z,26.30
2019-02-23T14:03:20.922Z,25.30
2019-02-23T14:06:01.758Z,25.50
2019-02-23T14:09:09.339Z,24.40
2019-02-23T14:12:31.708Z,25.00
2019-02-23T14:15:40.501Z,24.50
2019-02-23T14:18:47.759Z,24.80
2019-02-23T14:21:44.006Z,24.80
2019-02-23T14:24:50.231Z,25.20
2019-02-23T14:27:34.631Z,25.10
2019-02-23T14:30:40.537Z,25.40
2019-02-23T14:33:58.794Z,26.30
2019-02-23T14:36:43.486Z,26.80
2019-02-23T14:39:33.358Z,26.50
2019-02-23T14:42:18.291Z,26.80
2019-02-23T14:45:13.492Z,27.60
2019-02-23T14:48:07.641Z,26.50
2019-02-23T14:50:59.190Z,26.50
2019-02-23T14:53:45.086Z,26.50
2019-02-23T14:56:34.936Z,26.30
2019-02-23T14:59:33.149Z,26.80
2019-02-23T15:02:38.470Z,26.40
2019-02-23T15:05:34.422Z,26.90
2019-02-23T15:08:25.883Z,26.90
2019-02-23T15:11:30.448Z,27.30
2019-02-23T15:14:26.064Z,26.70
2019-02-23T15:17:24.062Z,26.40
2019-02-23T15:20:43.369Z,26.70
2019-02-23T15:23:58.076Z,26.80
2019-02-23T15:27:01.525Z,26.90
2019-02-23T15:30:20.601Z,27.00
2019-02-23T15:33:07.668Z,27.80
2019-02-23T15:36:04.921Z,27.60
2019-02-23T15:39:13.112Z,27.90
2019-02-23T15:42:25.297Z,28.70
2019-02-23T15:45:34.367Z,28.70
2019-02-23T15:48:37.010Z,28.50
2019-02-23T15:51:06.086Z,28.80
2019-02-23T15:53:35.257Z,29.00
2019-02-23T15:56:04.648Z,29.90
2019-02-23T15:58:33.417Z,30.00
2019-02-23T16:01:02.468Z,30.50
2019-02-23T16:03:31.352Z,31.00
2019-02-23T16:06:00.303Z,30.90
2019-02-23T16:08:29.140Z,30.80
2019-02-23T16:11:00.761Z,30.50
2019-02-23T16:13:30.243Z,30.10
2019-02-23T16:15:59.816Z,30.10
2019-02-23T16:18:29.296Z,30.60
2019-02-23T16:20:58.139Z,31.10
2019-02-23T16:23:35.325Z,31.40
2019-02-23T16:25:59.204Z,31.70
2019-02-23T16:28:28.074Z,33.40
2019-02-23T16:30:56.854Z,33.60
2019-02-23T16:33:25.660Z,33.90
2019-02-23T16:35:54.509Z,34.10
2019-02-23T16:38:23.313Z,34.50
2019-02-23T16:40:52.176Z,34.70
2019-02-23T16:43:21.157Z,35.10
2019-02-23T16:45:50.017Z,36.10
2019-02-23T16:48:19.100Z,35.50
2019-02-23T16:50:48.101Z,35.80
2019-02-23T16:53:16.974Z,35.40
2019-02-23T16:55:51.466Z,36.00
2019-02-23T16:58:16.565Z,36.30
2019-02-23T17:00:45.357Z,35.90
2019-02-23T17:03:14.249Z,36.10
2019-02-23T17:05:46.078Z,36.00
2019-02-23T17:08:15.162Z,36.10
2019-02-23T17:10:44.914Z,36.00
2019-02-23T17:13:14.142Z,36.20
2019-02-23T17:15:43.083Z,36.20
2019-02-23T17:18:12.141Z,36.10
2019-02-23T17:20:40.997Z,36.50
2019-02-23T17:23:09.798Z,36.60
2019-02-23T17:25:38.735Z,36.30
2019-02-23T17:28:07.604Z,36.40
2019-02-23T17:30:36.506Z,36.90
2019-02-23T17:33:05.307Z,37.00
2019-02-23T17:35:34.230Z,37.20
2019-02-23T17:38:15.466Z,37.50
2019-02-23T17:40:33.676Z,37.70
2019-02-23T17:43:02.513Z,38.10
2019-02-23T17:45:31.433Z,38.20
2019-02-23T17:48:00.217Z,38.30
2019-02-23T17:50:28.996Z,39.10
2019-02-23T17:52:57.881Z,38.70
2019-02-23T17:55:26.704Z,38.50
2019-02-23T17:57:55.683Z,38.50
2019-02-23T18:00:25.614Z,38.30
2019-02-23T18:02:54.649Z,38.30
2019-02-23T18:05:23.499Z,38.40
2019-02-23T18:07:52.390Z,38.90
2019-02-23T18:10:21.252Z,38.90
2019-02-23T18:12:50.624Z,39.20
2019-02-23T18:15:19.636Z,39.40
2019-02-23T18:17:48.589Z,39.40
2019-02-23T18:20:17.508Z,39.60
2019-02-23T18:22:46.452Z,40.10
2019-02-23T18:25:15.385Z,40.20
2019-02-23T18:27:44.273Z,40.50
2019-02-23T18:30:14.188Z,40.60
2019-02-23T18:32:43.140Z,40.70
2019-02-23T18:35:12.077Z,40.80
2019-02-23T18:37:41.216Z,40.90
2019-02-23T18:40:10.257Z,41.10
2019-02-23T18:42:39.390Z,41.10
2019-02-23T18:45:08.420Z,41.30
2019-02-23T18:47:37.460Z,41.90
2019-02-23T18:50:06.713Z,42.10
2019-02-23T18:52:35.889Z,41.60
2019-02-23T18:55:05.096Z,41.70
2019-02-23T18:57:34.024Z,42.10
2019-02-23T19:00:02.982Z,42.20
2019-02-23T19:02:32.136Z,42.50
2019-02-23T19:05:01.117Z,42.90
2019-02-23T19:07:30.265Z,42.80
2019-02-23T19:09:59.100Z,42.80
2019-02-23T19:12:27.880Z,43.00
2019-02-23T19:14:57.776Z,43.50
2019-02-23T19:17:26.620Z,43.90
2019-02-23T19:19:55.457Z,43.90
2019-02-23T19:22:24.233Z,44.40
2019-02-23T19:24:53.137Z,44.60
2019-02-23T19:27:22.092Z,45.20
2019-02-23T19:29:50.988Z,46.40
2019-02-23T19:32:19.765Z,48.10
2019-02-23T19:34:48.658Z,48.90
2019-02-23T19:37:17.700Z,49.00
2019-02-23T19:39:46.938Z,49.50
2019-02-23T19:42:15.969Z,49.50
2019-02-23T19:44:44.872Z,50.20
2019-02-23T19:47:16.877Z,49.80
2019-02-23T19:49:45.700Z,49.50
2019-02-23T19:52:18.434Z,49.30
2019-02-23T19:54:47.752Z,50.00
2019-02-23T19:57:17.026Z,49.20
2019-02-23T19:59:45.827Z,47.90
2019-02-23T20:02:14.671Z,47.90
2019-02-23T20:04:43.588Z,47.50
2019-02-23T20:07:12.507Z,47.90
2019-02-23T20:09:41.372Z,48.10
2019-02-23T20:12:10.233Z,46.70
2019-02-23T20:14:39.152Z,47.10
2019-02-23T20:17:08.365Z,48.70
2019-02-23T20:19:37.152Z,48.80
2019-02-23T20:22:06.293Z,49.00
2019-02-23T20:24:35.244Z,47.50
2019-02-23T20:27:04.381Z,47.80
2019-02-23T20:29:33.300Z,48.30
2019-02-23T20:32:02.076Z,48.70
2019-02-23T20:34:30.868Z,50.20
2019-02-23T20:36:59.760Z,50.90
2019-02-23T20:39:28.552Z,50.60
2019-02-23T20:41:57.371Z,49.70
2019-02-23T20:44:26.207Z,49.90
2019-02-23T20:46:54.969Z,49.50
2019-02-23T20:49:23.845Z,49.30
2019-02-23T20:51:52.694Z,48.90
2019-02-23T20:54:21.560Z,48.20
2019-02-23T20:56:50.345Z,48.70
2019-02-23T20:59:19.214Z,48.00
2019-02-23T21:01:48.017Z,48.20
2019-02-23T21:04:17.069Z,49.00
2019-02-23T21:06:46.508Z,48.70
2019-02-23T21:09:15.433Z,47.60
2019-02-23T21:11:44.323Z,47.50
2019-02-23T21:14:13.260Z,47.20
2019-02-23T21:16:42.084Z,47.20
2019-02-23T21:19:11.192Z,47.90
2019-02-23T21:21:39.988Z,49.10
2019-02-23T21:24:08.849Z,49.40
2019-02-23T21:26:37.665Z,49.40
2019-02-23T21:29:06.462Z,48.30
2019-02-23T21:31:35.585Z,47.00
2019-02-23T21:34:04.753Z,46.00
2019-02-23T21:36:33.569Z,45.90
2019-02-23T21:39:02.441Z,46.10
2019-02-23T21:41:31.211Z,45.90
2019-02-23T21:44:00.293Z,45.90
2019-02-23T21:46:29.216Z,45.70
2019-02-23T21:48:58.534Z,46.30
2019-02-23T21:51:27.339Z,45.90
2019-02-23T21:53:56.382Z,45.40
2019-02-23T21:56:25.330Z,45.40
2019-02-23T21:58:54.244Z,46.00
2019-02-23T22:01:23.065Z,46.10
2019-02-23T22:03:52.085Z,46.40
2019-02-23T22:06:20.872Z,45.90
2019-02-23T22:08:49.980Z,46.00
2019-02-23T22:11:18.797Z,45.70
2019-02-23T22:13:47.867Z,45.40
2019-02-23T22:16:17.165Z,45.60
2019-02-23T22:18:45.953Z,45.80
2019-02-23T22:21:14.855Z,46.00
2019-02-23T22:23:43.793Z,46.30
2019-02-23T22:26:12.944Z,46.10
2019-02-23T22:28:41.853Z,45.80
2019-02-23T22:31:10.729Z,45.90
2019-02-23T22:33:39.883Z,46.20
2019-02-23T22:36:08.796Z,46.40
2019-02-23T22:38:37.642Z,46.70
2019-02-23T22:41:06.426Z,46.90
2019-02-23T22:43:35.188Z,47.00
2019-02-23T22:46:03.980Z,47.30
2019-02-23T22:48:32.824Z,47.30
2019-02-23T22:51:01.619Z,47.70
2019-02-23T22:53:30.383Z,48.80
2019-02-23T22:55:59.437Z,47.90
2019-02-23T22:58:28.208Z,46.90
2019-02-23T23:01:04.971Z,46.50
2019-02-23T23:03:33.765Z,46.50
2019-02-23T23:06:02.528Z,46.00
2019-02-23T23:08:31.390Z,45.80
2019-02-23T23:11:00.411Z,46.10
2019-02-23T23:13:29.169Z,46.40
2019-02-23T23:15:58.065Z,47.40
2019-02-23T23:18:27.340Z,47.20
2019-02-23T23:20:56.116Z,47.20
2019-02-23T23:23:24.960Z,46.80
2019-02-23T23:25:54.110Z,46.80
2019-02-23T23:28:22.916Z,46.40
2019-02-23T23:30:51.704Z,45.80
2019-02-23T23:33:20.817Z,45.40
2019-02-23T23:35:49.580Z,44.60
2019-02-23T23:38:18.357Z,43.60
2019-02-23T23:40:47.149Z,43.00
2019-02-23T23:43:15.941Z,42.50
2019-02-23T23:45:44.960Z,42.20
2019-02-23T23:48:13.741Z,42.50
2019-02-23T23:50:42.600Z,42.10
2019-02-23T23:53:11.405Z,41.30
2019-02-23T23:55:40.544Z,40.50
2019-02-23T23:58:09.588Z,40.70
